JA010C RJFK-RJFK

Flight info

Callsign JA010C
Flight time N/A
Altitude 4000
Route TGL
Aircraft S22T/L-SDGRY/S

Departure

Time 2026-04-28 14:44
Airport Kagoshima Airport (RJFK)

Arrival

Time N/A
Airport Kagoshima Airport (RJFK)
Time Latitude Longitude Altitude Speed Heading
2026-04-28 14:23 31.79649 130.72092 906 ft 0 kts 330°
2026-04-28 14:41 31.79680 130.72079 872 ft 9 kts 14°
2026-04-28 14:41 31.79661 130.72170 871 ft 18 kts 143°
2026-04-28 14:41 31.79537 130.72257 870 ft 23 kts 149°
2026-04-28 14:41 31.79437 130.72325 870 ft 26 kts 149°
2026-04-28 14:42 31.79273 130.72435 869 ft 28 kts 152°
2026-04-28 14:42 31.79123 130.72545 867 ft 20 kts 118°
2026-04-28 14:42 31.79169 130.72693 864 ft 19 kts 51°
2026-04-28 14:42 31.79267 130.72664 866 ft 6 kts 327°
2026-04-28 14:43 31.79268 130.72664 866 ft 0 kts 329°
2026-04-28 14:43 31.79378 130.72589 868 ft 54 kts 331°
2026-04-28 14:44 31.79856 130.72280 978 ft 89 kts 329°
2026-04-28 14:44 31.80390 130.71911 1290 ft 91 kts 320°
2026-04-28 14:44 31.80965 130.71470 1595 ft 103 kts 328°
2026-04-28 14:44 31.81592 130.71053 1932 ft 106 kts 321°
2026-04-28 14:45 31.81945 130.70295 2075 ft 124 kts 268°
2026-04-28 14:45 31.81639 130.69285 2358 ft 131 kts 248°
2026-04-28 14:45 31.81243 130.68382 2617 ft 123 kts 245°
2026-04-28 14:45 31.80740 130.67571 2761 ft 124 kts 238°
2026-04-28 14:46 31.80573 130.66635 2763 ft 131 kts 294°
2026-04-28 14:46 31.80532 130.65720 2786 ft 151 kts 192°
2026-04-28 14:46 31.79695 130.66564 2547 ft 165 kts 130°
2026-04-28 14:46 31.78997 130.67577 2408 ft 154 kts 128°
2026-04-28 14:47 31.78301 130.68448 2297 ft 141 kts 141°
2026-04-28 14:47 31.77615 130.69199 2251 ft 131 kts 140°
2026-04-28 14:47 31.76973 130.69939 2094 ft 130 kts 137°
2026-04-28 14:47 31.76363 130.70720 1931 ft 129 kts 129°
2026-04-28 14:48 31.76114 130.71691 1809 ft 121 kts 82°
2026-04-28 14:48 31.76336 130.72630 1662 ft 119 kts 65°
2026-04-28 14:48 31.76664 130.73511 1522 ft 114 kts 55°
2026-04-28 14:48 31.77183 130.74148 1456 ft 104 kts 11°
2026-04-28 14:49 31.77769 130.73896 1286 ft 97 kts 314°
2026-04-28 14:49 31.78281 130.73393 1146 ft 89 kts 321°
2026-04-28 14:49 31.78744 130.73034 1013 ft 78 kts 324°
2026-04-28 14:49 31.79185 130.72728 889 ft 72 kts 321°
2026-04-28 14:50 31.79581 130.72454 847 ft 57 kts 321°
2026-04-28 14:50 31.79958 130.72201 854 ft 72 kts 332°
2026-04-28 14:50 31.80433 130.71862 1070 ft 85 kts 314°
2026-04-28 14:50 31.80964 130.71493 1351 ft 92 kts 322°
2026-04-28 14:51 31.81473 130.71060 1683 ft 87 kts 313°
2026-04-28 14:51 31.81654 130.70341 1872 ft 104 kts 265°
2026-04-28 14:51 31.81492 130.69526 2012 ft 104 kts 244°
2026-04-28 14:51 31.80846 130.69131 2048 ft 122 kts 181°
2026-04-28 14:52 31.80012 130.69455 2100 ft 126 kts 159°
2026-04-28 14:52 31.79238 130.69971 2102 ft 131 kts 154°
2026-04-28 14:52 31.78460 130.70534 2061 ft 131 kts 152°
2026-04-28 14:52 31.77696 130.71119 1998 ft 132 kts 149°
2026-04-28 14:53 31.77114 130.71937 1907 ft 135 kts 102°
2026-04-28 14:53 31.77288 130.72883 1822 ft 104 kts 53°
2026-04-28 14:53 31.77801 130.73361 1440 ft 92 kts 360°
2026-04-28 14:53 31.78379 130.73253 1081 ft 79 kts 327°
2026-04-28 14:54 31.78834 130.72974 966 ft 72 kts 319°
2026-04-28 14:54 31.79263 130.72672 867 ft 71 kts 322°
2026-04-28 14:54 31.79625 130.72408 847 ft 56 kts 326°